Time;durP1;ratioP1;P1;durP2;ratioP2;P2;SDS_P1;SDS_P2;PMS_P1;PMS_P2;Temp;Humidity;BMP_temperature;BMP_pressure;BME280_temperature;BME280_humidity;BME280_pressure;Samples;Min_cycle;Max_cycle;Signal;HPM_P1;HPM_P2
2022/11/07 00:00:13;;;;;;;0.60;0.60;;;11.20;99.90;;;;;;4932297;28;20154;-84
2022/11/07 00:02:39;;;;;;;0.60;0.60;;;11.20;99.90;;;;;;4951610;28;20347;-84
2022/11/07 00:05:05;;;;;;;0.60;0.60;;;11.20;99.90;;;;;;4912389;28;20041;-81
2022/11/07 00:07:31;;;;;;;0.60;0.60;;;11.20;99.90;;;;;;4947769;28;20262;-84
2022/11/07 00:09:57;;;;;;;0.60;0.60;;;11.20;99.90;;;;;;4948944;28;20096;-83
2022/11/07 00:12:22;;;;;;;0.60;0.60;;;11.20;99.90;;;;;;4935071;28;20495;-88
2022/11/07 00:14:48;;;;;;;0.60;0.60;;;11.30;99.90;;;;;;4948138;28;20430;-84
2022/11/07 00:17:17;;;;;;;0.60;0.60;;;11.30;99.90;;;;;;4933291;28;20049;-83
2022/11/07 00:19:43;;;;;;;0.60;0.60;;;11.30;99.90;;;;;;4944464;28;20076;-86
2022/11/07 00:22:08;;;;;;;0.60;0.60;;;11.20;99.90;;;;;;4941619;28;20053;-87
2022/11/07 00:24:34;;;;;;;0.60;0.60;;;11.30;99.90;;;;;;4943597;28;20096;-85
2022/11/07 00:27:00;;;;;;;0.60;0.60;;;11.30;99.90;;;;;;4946454;28;20383;-82
2022/11/07 00:29:26;;;;;;;0.60;0.60;;;11.30;99.90;;;;;;4947359;28;20057;-86
2022/11/07 00:31:51;;;;;;;0.60;0.60;;;11.30;99.90;;;;;;4935171;28;20053;-84
2022/11/07 00:34:17;;;;;;;0.60;0.60;;;11.40;99.90;;;;;;4940178;28;20186;-83
2022/11/07 00:36:43;;;;;;;0.60;0.60;;;11.40;99.90;;;;;;4947450;28;20123;-84
2022/11/07 00:39:10;;;;;;;0.60;0.60;;;11.50;99.90;;;;;;4948559;28;20446;-84
2022/11/07 00:41:36;;;;;;;0.60;0.60;;;11.50;99.90;;;;;;4928672;28;20569;-86
2022/11/07 00:44:01;;;;;;;0.60;0.60;;;11.50;99.90;;;;;;4935615;28;20241;-84
2022/11/07 00:46:27;;;;;;;0.60;0.60;;;11.40;99.90;;;;;;4929453;28;20037;-81
2022/11/07 00:48:53;;;;;;;0.60;0.60;;;11.50;99.90;;;;;;4942613;28;20395;-81
2022/11/07 00:51:22;;;;;;;0.60;0.60;;;11.50;99.90;;;;;;4947652;28;20068;-81
2022/11/07 00:53:48;;;;;;;0.60;0.60;;;11.60;99.90;;;;;;4953116;28;20145;-82
2022/11/07 00:56:17;;;;;;;0.60;0.60;;;11.50;99.90;;;;;;4944736;28;20046;-85
2022/11/07 00:58:43;;;;;;;0.60;0.60;;;11.50;99.90;;;;;;4931681;28;20053;-86
2022/11/07 01:01:15;;;;;;;0.60;0.60;;;11.50;99.90;;;;;;4938250;28;20111;-83
2022/11/07 01:06:28;;;;;;;;;;;11.30;99.90;;;;;;4938308;28;20111;-82
2022/11/07 01:08:55;;;;;;;0.60;0.60;;;11.20;99.90;;;;;;4940633;28;19925;-82
2022/11/07 01:11:22;;;;;;;0.60;0.60;;;11.10;99.90;;;;;;4943669;28;20518;-83
2022/11/07 01:13:48;;;;;;;0.60;0.60;;;11.10;99.90;;;;;;4942495;28;20075;-83
2022/11/07 01:16:14;;;;;;;0.57;0.57;;;11.10;99.90;;;;;;4941484;28;20176;-82
2022/11/07 01:18:40;;;;;;;0.60;0.60;;;11.00;99.90;;;;;;4939349;28;20073;-84
2022/11/07 01:21:07;;;;;;;0.60;0.60;;;11.00;99.90;;;;;;4916735;28;20048;-85
2022/11/07 01:23:33;;;;;;;0.60;0.60;;;11.00;99.90;;;;;;4933245;28;20053;-85
2022/11/07 01:26:05;;;;;;;0.60;0.60;;;10.90;99.90;;;;;;4904528;28;20060;-86
2022/11/07 01:28:31;;;;;;;0.60;0.60;;;11.00;99.90;;;;;;4950288;28;20164;-82
2022/11/07 01:30:57;;;;;;;0.60;0.60;;;11.00;99.90;;;;;;4939668;28;20114;-90
2022/11/07 01:33:22;;;;;;;0.60;0.60;;;11.00;99.90;;;;;;4905152;28;20048;-86
2022/11/07 01:35:48;;;;;;;0.60;0.60;;;11.00;99.90;;;;;;4943039;28;20053;-82
2022/11/07 01:38:14;;;;;;;0.60;0.60;;;11.10;99.90;;;;;;4924357;28;20580;-85
2022/11/07 01:41:20;;;;;;;0.60;0.60;;;11.00;99.90;;;;;;4947554;28;20045;-85
2022/11/07 01:43:48;;;;;;;0.60;0.60;;;11.10;99.90;;;;;;4940542;28;20084;-83
2022/11/07 01:46:15;;;;;;;0.60;0.60;;;11.20;99.90;;;;;;4946023;28;20044;-83
2022/11/07 01:48:46;;;;;;;0.60;0.60;;;11.30;99.90;;;;;;4951651;28;20081;-85
2022/11/07 01:51:12;;;;;;;0.60;0.60;;;11.30;99.90;;;;;;4944297;28;20856;-81
2022/11/07 01:53:39;;;;;;;0.60;0.60;;;11.30;99.90;;;;;;4924688;28;20601;-86
2022/11/07 01:56:10;;;;;;;0.60;0.60;;;11.40;99.90;;;;;;4948242;28;21025;-84
2022/11/07 01:58:36;;;;;;;0.60;0.60;;;11.30;99.90;;;;;;4923635;28;20057;-85
2022/11/07 02:01:03;;;;;;;0.60;0.60;;;11.30;99.90;;;;;;4925080;28;20427;-85
2022/11/07 02:03:29;;;;;;;0.60;0.60;;;11.30;99.90;;;;;;4946003;28;20060;-86
2022/11/07 02:06:00;;;;;;;0.60;0.60;;;11.30;99.90;;;;;;4912203;28;20433;-83
2022/11/07 02:08:28;;;;;;;0.60;0.60;;;11.40;99.90;;;;;;4945206;28;20221;-86
2022/11/07 02:10:58;;;;;;;0.60;0.60;;;11.40;99.90;;;;;;4944116;28;22028;-87
2022/11/07 02:13:29;;;;;;;0.60;0.60;;;11.50;99.90;;;;;;4919793;28;20510;-86
2022/11/07 02:15:57;;;;;;;0.60;0.60;;;11.60;99.90;;;;;;4937511;28;20049;-84
2022/11/07 02:18:26;;;;;;;0.57;0.57;;;11.60;99.90;;;;;;4943645;28;20267;-89
2022/11/07 02:20:54;;;;;;;1.17;1.15;;;11.50;99.90;;;;;;4931121;28;20048;-86
2022/11/07 02:23:26;;;;;;;0.60;0.60;;;11.60;99.90;;;;;;4941159;28;20090;-82
2022/11/07 02:25:52;;;;;;;0.60;0.60;;;11.60;99.90;;;;;;4929455;28;20053;-85
2022/11/07 02:28:20;;;;;;;0.60;0.60;;;11.60;99.90;;;;;;4950314;28;20156;-83
2022/11/07 02:30:46;;;;;;;0.60;0.60;;;11.60;99.90;;;;;;4945179;28;20499;-82
2022/11/07 02:33:22;;;;;;;0.60;0.60;;;11.60;99.90;;;;;;4927630;28;20107;-85
2022/11/07 02:35:53;;;;;;;0.50;0.50;;;11.60;99.90;;;;;;4926599;28;20526;-83
2022/11/07 02:38:22;;;;;;;0.60;0.60;;;11.50;99.90;;;;;;4960484;28;20064;-84
2022/11/07 02:40:57;;;;;;;0.60;0.60;;;11.40;99.90;;;;;;4939876;28;20045;-86
2022/11/07 02:43:27;;;;;;;0.70;0.70;;;11.40;99.90;;;;;;4929191;28;20653;-86
2022/11/07 02:45:56;;;;;;;0.60;0.60;;;11.40;99.90;;;;;;4940454;28;20411;-85
2022/11/07 02:48:26;;;;;;;0.60;0.60;;;11.20;99.90;;;;;;4944426;28;20187;-83
2022/11/07 02:50:52;;;;;;;0.60;0.60;;;11.20;99.90;;;;;;4925868;28;20698;-83
2022/11/07 02:53:18;;;;;;;0.60;0.60;;;11.20;99.90;;;;;;4925579;28;20789;-83
2022/11/07 02:55:43;;;;;;;0.60;0.60;;;11.20;99.90;;;;;;4910699;28;20053;-83
2022/11/07 02:58:09;;;;;;;0.60;0.60;;;11.20;99.90;;;;;;4917314;28;20053;-86
2022/11/07 03:00:35;;;;;;;0.60;0.60;;;11.10;99.90;;;;;;4904298;28;20053;-85
2022/11/07 03:03:01;;;;;;;0.60;0.60;;;11.10;99.90;;;;;;4939264;28;21191;-84
2022/11/07 03:05:26;;;;;;;0.60;0.60;;;11.10;99.90;;;;;;4905946;28;20048;-84
2022/11/07 03:07:55;;;;;;;0.60;0.60;;;11.10;99.90;;;;;;4946686;28;20037;-85
2022/11/07 03:10:21;;;;;;;0.60;0.60;;;11.10;99.90;;;;;;4912253;28;20045;-86
2022/11/07 03:12:47;;;;;;;0.60;0.60;;;11.00;99.90;;;;;;4945087;28;20045;-85
2022/11/07 03:15:13;;;;;;;0.60;0.60;;;11.10;99.90;;;;;;4954688;28;20045;-84
2022/11/07 03:17:39;;;;;;;0.60;0.60;;;11.10;99.90;;;;;;4939462;28;20061;-88
2022/11/07 03:20:09;;;;;;;0.60;0.60;;;11.20;99.90;;;;;;4931644;28;20056;-84
2022/11/07 03:22:34;;;;;;;0.60;0.60;;;11.10;99.90;;;;;;4944374;28;20452;-85
2022/11/07 03:25:00;;;;;;;0.60;0.60;;;11.10;99.90;;;;;;4922436;28;20069;-87
2022/11/07 03:27:26;;;;;;;0.60;0.60;;;11.20;99.90;;;;;;4928230;28;20511;-84
2022/11/07 03:29:52;;;;;;;0.60;0.60;;;11.30;99.90;;;;;;4938888;28;20081;-86
2022/11/07 03:32:18;;;;;;;0.60;0.60;;;11.30;99.90;;;;;;4942759;28;20088;-84
2022/11/07 03:34:43;;;;;;;0.60;0.60;;;11.30;99.90;;;;;;4941721;28;20522;-84
2022/11/07 03:37:09;;;;;;;0.60;0.60;;;11.30;99.90;;;;;;4922886;28;21753;-83
2022/11/07 03:39:35;;;;;;;0.60;0.60;;;11.40;99.90;;;;;;4925507;28;20055;-85
2022/11/07 03:42:01;;;;;;;0.60;0.60;;;11.50;99.90;;;;;;4925182;28;20037;-84
2022/11/07 03:44:26;;;;;;;0.60;0.60;;;11.50;99.90;;;;;;4939134;28;20045;-85
2022/11/07 03:46:52;;;;;;;0.60;0.60;;;11.50;99.90;;;;;;4939395;28;20053;-85
2022/11/07 03:49:18;;;;;;;0.60;0.60;;;11.50;99.90;;;;;;4939222;28;20600;-82
2022/11/07 03:51:44;;;;;;;0.60;0.60;;;11.50;99.90;;;;;;4946611;28;20661;-87
2022/11/07 03:54:09;;;;;;;0.70;0.70;;;11.50;99.90;;;;;;4911341;28;20059;-83
2022/11/07 03:56:35;;;;;;;0.50;0.50;;;11.50;99.90;;;;;;4948025;28;20048;-88
2022/11/07 03:59:01;;;;;;;0.57;0.57;;;11.50;99.90;;;;;;4936948;28;20088;-85
2022/11/07 04:01:27;;;;;;;0.60;0.60;;;11.60;99.90;;;;;;4942865;28;20533;-83
2022/11/07 04:03:53;;;;;;;0.60;0.60;;;11.50;99.90;;;;;;4941081;28;20049;-84
2022/11/07 04:06:18;;;;;;;0.60;0.60;;;11.50;99.90;;;;;;4907169;28;20167;-85
2022/11/07 04:08:44;;;;;;;0.60;0.60;;;11.30;99.90;;;;;;4924820;28;20581;-84
2022/11/07 04:17:17;;;;;;;0.60;0.60;;;11.40;99.90;;;;;;4926723;28;20574;-85
2022/11/07 04:19:27;;;;;;;0.50;0.50;;;11.60;99.90;;;;;;4945078;28;20057;-84
2022/11/07 04:21:53;;;;;;;0.70;0.70;;;11.60;99.90;;;;;;4923492;28;20045;-85
2022/11/07 04:24:19;;;;;;;0.60;0.60;;;11.60;99.90;;;;;;4907038;28;20562;-87
2022/11/07 04:29:29;;;;;;;0.52;0.52;;;11.60;99.90;;;;;;4947754;28;20057;-85
2022/11/07 04:31:55;;;;;;;0.60;0.60;;;11.60;99.90;;;;;;4921554;28;20398;-85
2022/11/07 04:34:20;;;;;;;0.60;0.60;;;11.60;99.90;;;;;;4945556;28;20064;-84
2022/11/07 04:36:46;;;;;;;0.60;0.60;;;11.60;99.90;;;;;;4961097;28;20443;-87
2022/11/07 04:39:15;;;;;;;0.60;0.60;;;11.60;99.90;;;;;;4922605;28;20053;-83
2022/11/07 04:41:40;;;;;;;0.60;0.60;;;11.60;99.90;;;;;;4921423;28;20598;-84
2022/11/07 04:44:07;;;;;;;0.60;0.60;;;11.60;99.90;;;;;;4921762;28;20848;-86
2022/11/07 04:46:32;;;;;;;0.60;0.60;;;11.60;99.90;;;;;;4916179;28;20497;-86
2022/11/07 04:48:58;;;;;;;0.60;0.60;;;11.70;99.90;;;;;;4948116;28;20041;-87
2022/11/07 04:51:24;;;;;;;0.60;0.60;;;11.60;99.90;;;;;;4937649;28;20445;-87
2022/11/07 04:53:50;;;;;;;0.60;0.60;;;11.60;99.90;;;;;;4947314;28;20386;-85
2022/11/07 04:56:16;;;;;;;0.60;0.60;;;11.70;99.90;;;;;;4917315;28;20431;-83
2022/11/07 04:58:41;;;;;;;0.60;0.60;;;11.70;99.90;;;;;;4938292;28;20424;-83
2022/11/07 05:01:07;;;;;;;0.60;0.60;;;11.60;99.90;;;;;;4943824;28;20931;-85
2022/11/07 05:03:33;;;;;;;0.60;0.60;;;11.60;99.90;;;;;;4895091;28;20045;-85
2022/11/07 05:05:59;;;;;;;0.60;0.60;;;11.50;99.90;;;;;;4947578;28;20120;-87
2022/11/07 05:08:24;;;;;;;0.60;0.60;;;11.50;99.90;;;;;;4932626;28;20858;-86
2022/11/07 05:10:50;;;;;;;0.60;0.60;;;11.50;99.90;;;;;;4933445;28;20846;-86
2022/11/07 05:13:17;;;;;;;0.60;0.60;;;11.60;99.90;;;;;;4926954;28;20064;-85
2022/11/07 05:15:43;;;;;;;0.60;0.60;;;11.60;99.90;;;;;;4928349;28;20041;-84
2022/11/07 05:18:10;;;;;;;0.50;0.50;;;11.60;99.90;;;;;;4921228;28;20574;-86
2022/11/07 05:20:37;;;;;;;0.60;0.60;;;11.70;99.90;;;;;;4941399;28;20049;-86
2022/11/07 05:23:17;;;;;;;0.60;0.60;;;11.70;99.90;;;;;;4944111;28;20057;-84
2022/11/07 05:25:47;;;;;;;0.60;0.60;;;11.70;99.90;;;;;;4928582;28;21102;-84
2022/11/07 05:28:17;;;;;;;0.70;0.70;;;11.70;99.90;;;;;;4941079;28;20207;-83
2022/11/07 05:30:47;;;;;;;0.50;0.50;;;11.60;99.90;;;;;;4926423;28;20048;-87
2022/11/07 05:33:15;;;;;;;0.60;0.60;;;11.60;99.90;;;;;;4947380;28;20049;-85
2022/11/07 05:35:41;;;;;;;0.60;0.60;;;11.60;99.90;;;;;;4925760;28;20044;-85
2022/11/07 05:38:07;;;;;;;0.60;0.60;;;11.60;99.90;;;;;;4934165;28;20057;-85
2022/11/07 05:40:34;;;;;;;0.52;0.52;;;11.50;99.90;;;;;;4943971;28;20124;-84
2022/11/07 05:43:02;;;;;;;0.60;0.60;;;11.50;99.90;;;;;;4944162;28;20053;-84
2022/11/07 05:45:29;;;;;;;0.60;0.60;;;11.40;99.90;;;;;;4938179;28;20158;-84
2022/11/07 05:48:03;;;;;;;0.60;0.60;;;11.50;99.90;;;;;;4942561;28;20156;-85
2022/11/07 05:50:29;;;;;;;;;;;11.50;99.90;;;;;;4935874;28;20053;-86
2022/11/07 05:52:55;;;;;;;0.60;0.60;;;11.50;99.90;;;;;;4933250;28;19948;-85
2022/11/07 05:55:22;;;;;;;0.60;0.60;;;11.50;99.90;;;;;;4936008;28;20053;-84
2022/11/07 05:57:48;;;;;;;0.60;0.60;;;11.50;99.90;;;;;;4938731;28;20041;-87
2022/11/07 06:00:14;;;;;;;0.60;0.60;;;11.50;99.90;;;;;;4926760;28;20049;-86
2022/11/07 06:02:40;;;;;;;0.60;0.60;;;11.60;99.90;;;;;;4921314;28;20160;-86
2022/11/07 06:05:06;;;;;;;0.60;0.60;;;11.60;99.90;;;;;;4909780;28;20045;-83
2022/11/07 06:07:36;;;;;;;0.60;0.60;;;11.50;99.90;;;;;;4928715;28;20056;-85
2022/11/07 06:10:07;;;;;;;0.57;0.57;;;11.60;99.90;;;;;;4944638;28;20053;-84
2022/11/07 06:12:33;;;;;;;0.60;0.60;;;11.60;99.90;;;;;;4941607;28;20933;-92
2022/11/07 06:14:59;;;;;;;0.60;0.60;;;11.60;99.90;;;;;;4890638;28;20045;-84
2022/11/07 06:17:25;;;;;;;0.60;0.60;;;11.60;99.90;;;;;;4905357;28;20333;-85
2022/11/07 06:19:50;;;;;;;0.60;0.60;;;11.60;99.90;;;;;;4944245;28;20049;-85
2022/11/07 06:22:16;;;;;;;0.50;0.50;;;11.60;99.90;;;;;;4945398;28;20050;-85
2022/11/07 06:24:42;;;;;;;0.60;0.60;;;11.70;99.90;;;;;;4930472;28;20045;-85
2022/11/07 06:27:08;;;;;;;0.60;0.60;;;11.70;99.90;;;;;;4925478;28;20115;-84
2022/11/07 06:29:34;;;;;;;0.60;0.60;;;11.60;99.90;;;;;;4926254;28;21155;-86
2022/11/07 06:31:59;;;;;;;0.60;0.60;;;11.70;99.90;;;;;;4928831;28;21010;-84
2022/11/07 06:34:25;;;;;;;0.60;0.60;;;11.60;99.90;;;;;;4940206;28;20056;-86
2022/11/07 06:36:53;;;;;;;0.60;0.60;;;11.60;99.90;;;;;;4895836;28;20585;-86
2022/11/07 06:39:18;;;;;;;0.60;0.60;;;11.60;99.90;;;;;;4941368;28;20084;-88
2022/11/07 06:41:44;;;;;;;0.60;0.60;;;11.60;99.90;;;;;;4943098;28;20160;-84
2022/11/07 06:44:10;;;;;;;0.70;0.70;;;11.70;99.90;;;;;;4940222;28;20778;-85
2022/11/07 06:46:39;;;;;;;0.52;0.52;;;11.70;99.90;;;;;;4927212;28;20080;-92
2022/11/07 06:49:04;;;;;;;0.60;0.60;;;11.70;99.90;;;;;;4942510;28;20057;-86
2022/11/07 06:51:30;;;;;;;0.60;0.60;;;11.70;99.90;;;;;;4938018;28;20500;-80
2022/11/07 06:53:56;;;;;;;0.60;0.60;;;11.80;99.90;;;;;;4940539;28;20115;-86
2022/11/07 06:56:22;;;;;;;0.60;0.60;;;11.70;99.90;;;;;;4943611;28;20103;-86
2022/11/07 06:58:48;;;;;;;0.50;0.50;;;11.70;99.90;;;;;;4904137;28;20052;-85
2022/11/07 07:01:15;;;;;;;0.60;0.60;;;11.70;99.90;;;;;;4927489;28;20077;-86
2022/11/07 07:03:42;;;;;;;0.60;0.60;;;11.70;99.90;;;;;;4961488;28;20212;-84
2022/11/07 07:06:13;;;;;;;0.60;0.60;;;11.60;99.90;;;;;;4938293;28;20056;-87
2022/11/07 07:08:39;;;;;;;0.60;0.60;;;11.50;99.90;;;;;;4925000;28;20156;-83
2022/11/07 07:11:12;;;;;;;0.60;0.60;;;11.50;99.90;;;;;;4918615;28;20411;-84
2022/11/07 07:13:38;;;;;;;0.60;0.60;;;11.50;99.90;;;;;;4938293;28;20057;-83
2022/11/07 07:16:04;;;;;;;0.60;0.60;;;11.50;99.90;;;;;;4938537;28;20049;-87
2022/11/07 07:18:30;;;;;;;0.50;0.50;;;11.50;99.90;;;;;;4933621;28;20071;-86
2022/11/07 07:21:09;;;;;;;0.60;0.60;;;11.40;99.90;;;;;;4927102;28;20060;-84
2022/11/07 07:23:38;;;;;;;0.60;0.60;;;11.50;99.90;;;;;;4927254;28;21049;-86
2022/11/07 07:26:07;;;;;;;0.50;0.50;;;11.50;99.90;;;;;;4944692;28;20057;-86
2022/11/07 07:28:35;;;;;;;0.60;0.60;;;11.50;99.90;;;;;;4941147;28;20562;-85
2022/11/07 07:31:16;;;;;;;0.60;0.60;;;11.60;99.90;;;;;;4941974;28;20160;-86
2022/11/07 07:33:42;;;;;;;0.60;0.60;;;11.70;99.90;;;;;;4926200;28;20049;-82
2022/11/07 07:36:09;;;;;;;0.50;0.50;;;11.70;99.90;;;;;;4922940;28;20584;-84
2022/11/07 07:38:39;;;;;;;0.55;0.55;;;11.80;99.90;;;;;;4938569;28;20045;-86
2022/11/07 07:41:06;;;;;;;0.50;0.50;;;11.90;99.90;;;;;;4921284;28;20316;-85
2022/11/07 07:43:32;;;;;;;0.60;0.60;;;12.00;99.90;;;;;;4945945;28;20041;-84
2022/11/07 07:45:59;;;;;;;0.52;0.52;;;12.10;99.90;;;;;;4941220;28;20480;-81
2022/11/07 07:48:25;;;;;;;0.60;0.60;;;12.10;99.90;;;;;;4925682;28;20044;-80
2022/11/07 07:50:51;;;;;;;0.60;0.60;;;12.20;99.90;;;;;;4941045;28;20689;-86
2022/11/07 07:53:18;;;;;;;0.60;0.60;;;12.20;99.90;;;;;;4937047;28;20061;-84
2022/11/07 07:55:45;;;;;;;0.50;0.50;;;12.20;99.90;;;;;;4926787;28;21129;-85
2022/11/07 07:58:12;;;;;;;0.60;0.60;;;12.20;99.90;;;;;;4939556;28;20052;-86
2022/11/07 08:00:38;;;;;;;0.60;0.60;;;12.30;99.90;;;;;;4940673;28;20046;-86
2022/11/07 08:03:07;;;;;;;0.50;0.50;;;12.30;99.90;;;;;;4936544;28;20247;-86
2022/11/07 08:05:36;;;;;;;0.50;0.50;;;12.20;99.90;;;;;;4921890;28;20045;-85
2022/11/07 08:08:03;;;;;;;0.52;0.52;;;12.30;99.90;;;;;;4937345;28;20440;-80
2022/11/07 08:10:29;;;;;;;0.50;0.50;;;12.40;99.90;;;;;;4942278;28;20132;-87
2022/11/07 08:12:55;;;;;;;0.50;0.50;;;12.50;99.90;;;;;;4932037;28;20099;-85
2022/11/07 08:15:21;;;;;;;0.50;0.50;;;12.40;99.90;;;;;;4928716;28;20860;-86
2022/11/07 08:17:46;;;;;;;0.50;0.50;;;12.60;99.90;;;;;;4940426;28;20056;-86
2022/11/07 08:20:15;;;;;;;0.50;0.50;;;12.50;99.90;;;;;;4927756;28;20053;-87
2022/11/07 08:22:41;;;;;;;0.60;0.60;;;12.60;99.90;;;;;;4945634;28;20498;-88
2022/11/07 08:25:09;;;;;;;0.50;0.50;;;12.60;99.90;;;;;;4898836;28;20050;-93
2022/11/07 08:27:38;;;;;;;0.50;0.50;;;12.60;99.90;;;;;;4923995;28;20061;-88
2022/11/07 08:30:06;;;;;;;0.50;0.50;;;12.60;99.90;;;;;;4941184;28;20273;-90
2022/11/07 08:32:32;;;;;;;0.50;0.50;;;12.60;99.90;;;;;;4925873;28;20655;-85
2022/11/07 08:34:58;;;;;;;0.50;0.50;;;12.70;99.90;;;;;;4921024;28;20103;-85
2022/11/07 08:37:24;;;;;;;0.50;0.50;;;12.80;99.90;;;;;;4945720;28;20080;-88
2022/11/07 08:39:50;;;;;;;0.50;0.50;;;12.80;99.90;;;;;;4906283;28;20072;-86
2022/11/07 08:42:16;;;;;;;0.50;0.50;;;12.80;99.90;;;;;;4925816;28;20045;-86
2022/11/07 08:44:42;;;;;;;0.50;0.50;;;12.80;99.90;;;;;;4939972;28;20046;-84
2022/11/07 08:47:07;;;;;;;0.50;0.50;;;12.80;99.90;;;;;;4932468;28;20585;-83
2022/11/07 08:49:33;;;;;;;0.60;0.60;;;12.90;99.90;;;;;;4938431;28;20049;-86
2022/11/07 08:52:00;;;;;;;0.50;0.50;;;12.80;99.90;;;;;;4925931;28;20609;-87
2022/11/07 08:54:27;;;;;;;0.50;0.50;;;12.90;99.90;;;;;;4942058;28;21090;-87
2022/11/07 08:56:53;;;;;;;0.50;0.50;;;13.00;99.90;;;;;;4934397;28;20763;-85
2022/11/07 08:59:19;;;;;;;0.50;0.50;;;13.00;99.90;;;;;;4939973;28;20050;-84
2022/11/07 09:01:45;;;;;;;0.50;0.50;;;13.00;99.90;;;;;;4935115;28;20487;-80
2022/11/07 09:04:11;;;;;;;0.50;0.50;;;13.10;99.90;;;;;;4941737;28;20446;-84
2022/11/07 09:06:37;;;;;;;0.50;0.50;;;13.00;99.90;;;;;;4935666;28;20050;-86
2022/11/07 09:09:03;;;;;;;0.50;0.50;;;13.00;99.90;;;;;;4936138;28;20195;-86
2022/11/07 09:11:29;;;;;;;0.50;0.50;;;13.00;99.90;;;;;;4910083;28;20525;-82
2022/11/07 09:13:55;;;;;;;0.50;0.50;;;13.10;99.90;;;;;;4936805;28;20049;-83
2022/11/07 09:16:21;;;;;;;0.50;0.50;;;13.00;99.90;;;;;;4934991;28;20965;-86
2022/11/07 09:18:49;;;;;;;0.50;0.50;;;13.10;99.90;;;;;;4932959;28;20053;-86
2022/11/07 09:21:15;;;;;;;0.50;0.50;;;13.10;99.90;;;;;;4941369;28;20148;-85
2022/11/07 09:23:41;;;;;;;0.50;0.50;;;13.20;99.90;;;;;;4937172;28;20132;-84
2022/11/07 09:26:07;;;;;;;0.50;0.50;;;13.30;99.90;;;;;;4935957;28;20403;-81
2022/11/07 09:28:34;;;;;;;0.50;0.50;;;13.40;99.90;;;;;;4931067;28;20096;-81
2022/11/07 09:31:01;;;;;;;0.50;0.50;;;13.60;99.90;;;;;;4935170;28;20111;-80
2022/11/07 09:33:27;;;;;;;0.50;0.50;;;13.70;99.90;;;;;;4925093;28;20736;-81
2022/11/07 09:35:54;;;;;;;0.60;0.60;;;13.80;99.90;;;;;;4944903;28;20053;-86
2022/11/07 09:38:20;;;;;;;0.50;0.50;;;13.80;99.90;;;;;;4949729;28;20366;-84
2022/11/07 09:41:06;;;;;;;0.50;0.50;;;14.00;99.90;;;;;;4945426;28;20077;-85
2022/11/07 09:43:56;;;;;;;0.50;0.50;;;14.20;99.90;;;;;;4947044;28;20045;-87
2022/11/07 09:47:18;;;;;;;0.60;0.60;;;14.20;99.90;;;;;;4931381;28;20126;-84
2022/11/07 09:49:51;;;;;;;0.50;0.50;;;14.70;99.90;;;;;;4950042;28;20045;-86
2022/11/07 09:52:34;;;;;;;0.50;0.50;;;14.40;99.90;;;;;;4943187;28;20533;-87
2022/11/07 09:55:27;;;;;;;0.50;0.50;;;14.20;99.90;;;;;;4945744;28;20124;-89
2022/11/07 09:58:06;;;;;;;0.50;0.50;;;14.10;99.90;;;;;;4924919;28;20474;-83
2022/11/07 10:00:33;;;;;;;0.50;0.50;;;14.20;99.90;;;;;;4943389;28;20859;-87
2022/11/07 10:03:03;;;;;;;0.50;0.50;;;14.30;99.90;;;;;;4946099;28;20045;-89
2022/11/07 10:05:40;;;;;;;0.50;0.50;;;14.30;99.90;;;;;;4930568;28;20144;-87
2022/11/07 10:08:11;;;;;;;0.50;0.50;;;14.20;99.90;;;;;;4936458;28;20076;-86
2022/11/07 10:10:51;;;;;;;0.50;0.50;;;14.30;99.90;;;;;;4926781;28;20060;-85
2022/11/07 10:13:41;;;;;;;0.50;0.50;;;14.20;99.90;;;;;;4943113;28;20071;-88
2022/11/07 10:16:46;;;;;;;0.50;0.50;;;14.30;99.90;;;;;;4940638;28;20057;-85
2022/11/07 10:19:31;;;;;;;0.50;0.50;;;14.30;99.90;;;;;;4930973;28;20283;-87
2022/11/07 10:22:22;;;;;;;0.50;0.50;;;14.20;99.90;;;;;;4933024;28;20044;-84
2022/11/07 10:25:16;;;;;;;0.50;0.50;;;14.20;99.90;;;;;;4933871;28;20057;-85
2022/11/07 10:27:45;;;;;;;0.50;0.50;;;14.30;99.90;;;;;;4942007;28;20115;-86
2022/11/07 10:30:17;;;;;;;0.50;0.50;;;14.30;99.90;;;;;;4944522;28;20060;-82
2022/11/07 10:32:57;;;;;;;0.50;0.50;;;14.50;99.90;;;;;;4936962;28;20080;-90
2022/11/07 10:35:25;;;;;;;0.50;0.50;;;14.70;99.90;;;;;;4941131;28;20053;-88
2022/11/07 10:37:59;;;;;;;0.50;0.50;;;14.70;99.90;;;;;;4922916;28;20045;-83
2022/11/07 10:40:34;;;;;;;0.50;0.50;;;14.70;99.90;;;;;;4922305;28;20057;-86
2022/11/07 10:43:04;;;;;;;0.50;0.50;;;14.70;99.90;;;;;;4946652;28;20052;-87
2022/11/07 10:45:31;;;;;;;0.50;0.50;;;14.80;99.90;;;;;;4941837;28;20052;-87
2022/11/07 10:48:03;;;;;;;0.50;0.50;;;15.00;99.90;;;;;;4924772;28;20471;-89
2022/11/07 10:50:29;;;;;;;0.50;0.50;;;15.10;99.90;;;;;;4942189;28;20217;-83
2022/11/07 10:53:08;;;;;;;0.50;0.50;;;15.40;99.90;;;;;;4905133;28;20520;-85
2022/11/07 10:55:46;;;;;;;0.50;0.50;;;15.30;99.90;;;;;;4939138;28;20249;-86
2022/11/07 10:58:19;;;;;;;0.50;0.50;;;15.30;99.90;;;;;;4946485;28;20616;-86
2022/11/07 11:01:03;;;;;;;0.50;0.50;;;15.20;99.90;;;;;;4931857;28;20057;-87
2022/11/07 11:03:33;;;;;;;0.50;0.50;;;15.40;99.90;;;;;;4940530;28;20391;-86
2022/11/07 11:06:17;;;;;;;0.50;0.50;;;15.30;99.90;;;;;;4943215;28;20353;-93
2022/11/07 11:08:45;;;;;;;0.40;0.40;;;15.30;99.90;;;;;;4944380;28;20056;-85
2022/11/07 11:11:20;;;;;;;0.50;0.50;;;15.20;99.90;;;;;;4925445;28;20949;-87
2022/11/07 11:13:48;;;;;;;0.50;0.50;;;15.00;99.90;;;;;;4927015;28;20049;-90
2022/11/07 11:16:14;;;;;;;0.50;0.50;;;15.00;99.90;;;;;;4923982;28;20053;-91
2022/11/07 11:18:51;;;;;;;0.50;0.50;;;14.90;99.90;;;;;;4930668;28;20536;-87
2022/11/07 11:21:17;;;;;;;0.50;0.50;;;14.80;99.90;;;;;;4943204;28;20057;-86
2022/11/07 11:23:47;;;;;;;0.50;0.50;;;14.80;99.90;;;;;;4893889;28;20486;-89
2022/11/07 11:26:29;;;;;;;0.50;0.50;;;14.80;99.90;;;;;;4942017;28;20121;-81
2022/11/07 11:29:02;;;;;;;0.50;0.50;;;14.80;99.90;;;;;;4946646;28;20060;-87
2022/11/07 11:31:33;;;;;;;0.50;0.50;;;14.80;99.90;;;;;;4942625;28;20045;-82
2022/11/07 11:34:09;;;;;;;0.50;0.50;;;14.80;99.90;;;;;;4943206;28;20438;-85
2022/11/07 11:36:41;;;;;;;0.50;0.50;;;14.90;99.90;;;;;;4937116;28;20057;-84
2022/11/07 11:39:25;;;;;;;0.50;0.50;;;15.00;99.90;;;;;;4942765;28;20604;-85
2022/11/07 11:41:58;;;;;;;0.50;0.50;;;15.10;99.90;;;;;;4942766;28;20466;-89
2022/11/07 11:44:44;;;;;;;0.50;0.50;;;15.30;99.90;;;;;;4925638;28;20099;-86
2022/11/07 11:47:26;;;;;;;0.50;0.50;;;15.40;99.90;;;;;;4944676;28;20683;-90
2022/11/07 11:50:03;;;;;;;0.50;0.50;;;15.60;99.90;;;;;;4949559;28;20406;-90
2022/11/07 11:52:31;;;;;;;0.40;0.40;;;15.50;99.90;;;;;;4925607;28;20076;-90
2022/11/07 11:55:00;;;;;;;0.43;0.43;;;15.40;99.90;;;;;;4928149;28;20058;-91
2022/11/07 11:57:47;;;;;;;0.50;0.50;;;15.30;99.90;;;;;;4914791;28;20052;-87
2022/11/07 12:00:21;;;;;;;0.50;0.50;;;15.40;99.90;;;;;;4945244;28;20448;-85
2022/11/07 12:03:06;;;;;;;0.50;0.50;;;15.40;99.90;;;;;;4942438;28;20057;-91
2022/11/07 12:05:56;;;;;;;0.40;0.40;;;15.50;99.90;;;;;;4944850;28;20575;-89
2022/11/07 12:08:50;;;;;;;0.50;0.50;;;15.20;99.90;;;;;;4950284;28;20131;-88
2022/11/07 12:11:52;;;;;;;0.50;0.50;;;15.10;99.90;;;;;;4928328;28;20514;-88
2022/11/07 12:14:44;;;;;;;0.50;0.50;;;15.20;99.90;;;;;;4946921;28;20517;-88
2022/11/07 12:17:17;;;;;;;0.50;0.50;;;15.10;99.90;;;;;;4926982;28;20597;-83
2022/11/07 12:19:54;;;;;;;0.50;0.50;;;14.90;99.90;;;;;;4937380;28;20064;-83
2022/11/07 12:22:48;;;;;;;0.43;0.43;;;14.90;99.90;;;;;;4922265;28;20084;-88
2022/11/07 12:25:25;;;;;;;0.50;0.50;;;15.00;99.90;;;;;;4941980;28;20212;-83
2022/11/07 12:28:13;;;;;;;0.50;0.50;;;15.00;99.90;;;;;;4953066;28;20345;-84
2022/11/07 12:30:57;;;;;;;0.50;0.50;;;15.00;99.90;;;;;;4942320;28;21078;-86
2022/11/07 12:33:30;;;;;;;0.50;0.50;;;15.10;99.90;;;;;;4962076;28;20044;-90
2022/11/07 12:35:59;;;;;;;0.50;0.50;;;15.20;99.90;;;;;;4947316;28;20829;-86
2022/11/07 12:38:37;;;;;;;0.40;0.40;;;15.50;99.90;;;;;;4957765;28;20413;-84
2022/11/07 12:41:26;;;;;;;0.47;0.47;;;15.50;99.90;;;;;;4947439;28;20048;-87
2022/11/07 12:44:21;;;;;;;0.50;0.50;;;15.40;99.90;;;;;;4960370;28;20360;-86
2022/11/07 12:46:52;;;;;;;0.50;0.50;;;15.50;99.90;;;;;;4935295;28;20048;-86
2022/11/07 12:49:54;;;;;;;0.50;0.50;;;15.50;99.90;;;;;;4963275;28;20159;-85
2022/11/07 12:52:33;;;;;;;0.50;0.50;;;15.20;99.90;;;;;;4945675;28;20041;-87
2022/11/07 12:55:19;;;;;;;0.50;0.50;;;15.20;99.90;;;;;;4972425;28;20441;-87
2022/11/07 12:57:50;;;;;;;0.50;0.50;;;15.00;99.90;;;;;;4960333;28;20830;-85
2022/11/07 13:00:25;;;;;;;0.50;0.50;;;14.90;99.90;;;;;;4942344;28;20489;-90
2022/11/07 13:03:03;;;;;;;0.50;0.50;;;14.80;99.90;;;;;;4954633;28;20451;-88
2022/11/07 13:05:54;;;;;;;0.50;0.50;;;14.80;99.90;;;;;;4951680;28;20072;-85
2022/11/07 13:08:37;;;;;;;0.50;0.50;;;14.70;99.90;;;;;;4967954;28;20052;-92
2022/11/07 13:11:08;;;;;;;0.50;0.50;;;14.70;99.90;;;;;;4968163;28;20156;-87
2022/11/07 13:13:53;;;;;;;0.50;0.50;;;14.80;99.90;;;;;;4960000;28;20632;-90